Time;durP1;ratioP1;P1;durP2;ratioP2;P2;SDS_P1;SDS_P2;PMS_P1;PMS_P2;Temp;Humidity;BMP_temperature;BMP_pressure;BME280_temperature;BME280_humidity;BME280_pressure;Samples;Min_cycle;Max_cycle;Signal;HPM_P1;HPM_P2
2022/09/13 00:01:37;;;;;;;4.15;2.72;;;17.50;99.90;;;;;;6218590;23;20078;-88
2022/09/13 00:04:03;;;;;;;7.18;3.72;;;17.50;99.90;;;;;;6245517;23;20012;-86
2022/09/13 00:06:29;;;;;;;4.75;2.80;;;17.50;99.90;;;;;;6245498;23;20016;-87
2022/09/13 00:08:55;;;;;;;5.28;3.35;;;17.50;99.90;;;;;;6245226;23;20343;-87
2022/09/13 00:11:24;;;;;;;8.18;5.10;;;17.50;99.90;;;;;;6217910;23;20020;-86
2022/09/13 00:13:50;;;;;;;5.97;3.80;;;17.50;99.90;;;;;;6245419;23;20019;-87
2022/09/13 00:16:17;;;;;;;4.63;2.92;;;17.50;99.90;;;;;;6245255;23;20008;-87
2022/09/13 00:18:43;;;;;;;5.10;2.72;;;17.50;99.90;;;;;;6218170;23;20016;-84
2022/09/13 00:21:13;;;;;;;6.30;3.88;;;17.40;99.90;;;;;;6245401;23;20043;-87
2022/09/13 00:23:40;;;;;;;9.13;5.30;;;17.50;99.90;;;;;;6218977;23;20091;-87
2022/09/13 00:26:14;;;;;;;7.28;3.63;;;17.50;99.90;;;;;;6218677;23;20012;-85
2022/09/13 00:28:40;;;;;;;6.78;3.90;;;17.50;99.90;;;;;;6193278;23;20047;-86
2022/09/13 00:31:08;;;;;;;6.57;3.50;;;17.50;99.90;;;;;;6245323;23;20016;-87
2022/09/13 00:33:34;;;;;;;8.77;4.60;;;17.50;99.90;;;;;;6245164;23;20040;-85
2022/09/13 00:36:05;;;;;;;5.20;2.85;;;17.50;99.90;;;;;;6245394;23;20015;-85
2022/09/13 00:38:33;;;;;;;6.75;3.17;;;17.40;99.90;;;;;;6218125;23;20501;-84
2022/09/13 00:40:59;;;;;;;4.10;2.58;;;17.50;99.90;;;;;;6245405;23;20009;-85
2022/09/13 00:43:46;;;;;;;5.43;3.22;;;17.40;99.90;;;;;;6217809;23;20469;-85
2022/09/13 00:46:34;;;;;;;5.43;2.70;;;17.40;99.90;;;;;;6239595;23;20020;-84
2022/09/13 00:49:26;;;;;;;6.63;3.40;;;17.40;99.90;;;;;;6244692;22;20020;-86
2022/09/13 00:51:58;;;;;;;4.95;2.67;;;17.40;99.90;;;;;;6244447;22;20091;-86
2022/09/13 00:54:29;;;;;;;7.57;2.47;;;17.40;99.90;;;;;;6247309;22;20012;-86
2022/09/13 00:56:59;;;;;;;6.45;4.28;;;17.40;99.90;;;;;;6247182;22;20018;-85
2022/09/13 00:59:34;;;;;;;6.78;3.40;;;17.40;99.90;;;;;;6246682;22;20064;-84
2022/09/13 01:02:03;;;;;;;4.25;2.67;;;17.40;99.90;;;;;;6245427;23;20328;-87
2022/09/13 01:04:31;;;;;;;3.85;2.17;;;17.40;99.90;;;;;;6247236;22;20107;-84
2022/09/13 01:07:03;;;;;;;4.47;2.20;;;17.30;99.90;;;;;;6246744;22;20158;-85
2022/09/13 01:09:32;;;;;;;5.25;2.00;;;17.30;99.90;;;;;;6247319;22;20047;-86
2022/09/13 01:12:03;;;;;;;2.95;1.70;;;17.30;99.90;;;;;;6246903;22;20373;-84
2022/09/13 01:14:30;;;;;;;3.83;2.35;;;17.30;99.90;;;;;;6246545;22;20016;-85
2022/09/13 01:16:56;;;;;;;4.30;2.25;;;17.30;99.90;;;;;;6245339;23;20016;-86
2022/09/13 01:19:22;;;;;;;3.75;2.10;;;17.40;99.90;;;;;;6246971;22;20091;-86
2022/09/13 01:22:03;;;;;;;6.28;3.17;;;17.30;99.90;;;;;;6247015;22;20384;-85
2022/09/13 01:24:50;;;;;;;4.88;2.47;;;17.40;99.90;;;;;;6247205;23;20038;-86
2022/09/13 01:27:25;;;;;;;4.70;2.13;;;17.40;99.90;;;;;;6246862;23;20139;-85
2022/09/13 01:30:18;;;;;;;4.35;2.47;;;17.30;99.90;;;;;;6246366;23;20498;-84
2022/09/13 01:33:02;;;;;;;7.35;3.92;;;17.30;99.90;;;;;;6246769;22;20016;-84
2022/09/13 01:35:36;;;;;;;5.47;2.92;;;17.80;99.90;;;;;;6246655;23;20141;-86
2022/09/13 01:38:26;;;;;;;4.93;2.22;;;17.30;99.90;;;;;;6246036;23;20082;-85
2022/09/13 01:41:06;;;;;;;5.00;2.65;;;17.30;99.90;;;;;;6246708;23;20339;-86
2022/09/13 01:43:56;;;;;;;6.65;3.55;;;17.30;99.90;;;;;;6246845;22;20051;-85
2022/09/13 01:46:28;;;;;;;7.45;3.88;;;17.30;99.90;;;;;;6244719;23;20028;-86
2022/09/13 01:49:13;;;;;;;4.88;3.10;;;17.30;99.90;;;;;;6246833;23;20013;-84
2022/09/13 01:51:56;;;;;;;4.38;2.35;;;17.30;99.90;;;;;;6246019;22;20055;-86
2022/09/13 01:54:53;;;;;;;5.78;2.97;;;17.30;99.90;;;;;;6245249;23;20051;-86
2022/09/13 01:57:40;;;;;;;3.83;1.95;;;17.30;99.90;;;;;;6244954;23;20047;-86
2022/09/13 02:00:09;;;;;;;3.90;1.65;;;17.30;99.90;;;;;;6244923;23;20012;-87
2022/09/13 02:02:50;;;;;;;3.67;2.10;;;17.30;99.90;;;;;;6246479;22;20323;-84
2022/09/13 02:05:34;;;;;;;3.53;2.05;;;17.30;99.90;;;;;;6245925;22;20016;-87
2022/09/13 02:08:08;;;;;;;3.03;1.88;;;17.30;99.90;;;;;;6246609;22;20052;-84
2022/09/13 02:11:01;;;;;;;3.03;1.60;;;17.30;99.90;;;;;;6246557;22;20023;-85
2022/09/13 02:13:34;;;;;;;4.25;1.67;;;17.30;99.90;;;;;;6245492;23;20012;-85
2022/09/13 02:16:09;;;;;;;2.28;1.10;;;17.30;99.90;;;;;;6246536;22;20042;-85
2022/09/13 02:18:42;;;;;;;2.97;1.40;;;17.30;99.90;;;;;;6245381;23;20008;-86
2022/09/13 02:21:20;;;;;;;2.13;1.08;;;17.30;99.90;;;;;;6246183;22;20082;-84
2022/09/13 02:24:27;;;;;;;2.45;1.38;;;17.30;99.90;;;;;;6246684;22;20019;-86
2022/09/13 02:26:55;;;;;;;4.75;1.90;;;17.30;99.90;;;;;;6229618;23;20012;-85
2022/09/13 02:29:27;;;;;;;3.65;1.77;;;17.30;99.90;;;;;;6246175;22;20126;-85
2022/09/13 02:32:01;;;;;;;4.00;1.67;;;17.30;99.90;;;;;;6246491;22;20038;-84
2022/09/13 02:34:41;;;;;;;2.25;1.20;;;17.30;99.90;;;;;;6246284;23;20058;-86
2022/09/13 02:37:08;;;;;;;1.45;1.00;;;17.40;99.90;;;;;;6246477;22;20016;-84
2022/09/13 02:39:38;;;;;;;8.27;4.88;;;17.30;99.90;;;;;;6246091;22;20031;-84
2022/09/13 02:42:18;;;;;;;6.78;3.38;;;17.40;99.90;;;;;;6246048;22;20020;-84
2022/09/13 02:44:55;;;;;;;7.53;4.28;;;17.40;99.90;;;;;;6243749;23;20028;-86
2022/09/13 02:47:56;;;;;;;9.10;5.85;;;17.50;99.90;;;;;;6246167;22;20012;-83
2022/09/13 02:50:32;;;;;;;7.13;4.00;;;17.60;99.90;;;;;;6246232;22;20012;-85
2022/09/13 02:53:22;;;;;;;5.55;3.03;;;17.50;99.90;;;;;;6245733;23;20100;-86
2022/09/13 02:56:23;;;;;;;6.50;3.22;;;17.50;99.90;;;;;;6244061;23;20071;-85
2022/09/13 02:58:55;;;;;;;3.83;1.90;;;17.60;99.90;;;;;;6123008;23;20021;-84
2022/09/13 03:01:21;;;;;;;2.25;1.30;;;17.50;99.90;;;;;;6123709;23;20089;-86
2022/09/13 03:03:48;;;;;;;2.88;1.38;;;17.50;99.90;;;;;;6123645;23;20053;-87
2022/09/13 03:06:24;;;;;;;1.15;0.60;;;17.50;99.90;;;;;;6098858;23;20018;-86
2022/09/13 03:08:50;;;;;;;2.05;0.80;;;17.50;99.90;;;;;;6098701;23;20441;-84
2022/09/13 03:11:49;;;;;;;1.83;0.80;;;17.40;99.90;;;;;;6123354;23;20096;-87
2022/09/13 03:14:55;;;;;;;2.67;0.70;;;17.40;99.90;;;;;;6123026;23;20014;-88
2022/09/13 03:17:57;;;;;;;0.50;0.35;;;17.40;99.90;;;;;;6012724;23;20387;-87
2022/09/13 03:20:40;;;;;;;0.77;0.45;;;17.40;99.90;;;;;;6036755;23;20023;-87
2022/09/13 03:23:29;;;;;;;1.02;0.40;;;17.40;99.90;;;;;;6036715;23;20161;-86
2022/09/13 03:26:22;;;;;;;1.00;0.30;;;17.40;99.90;;;;;;6012802;23;20027;-88
2022/09/13 03:28:56;;;;;;;0.40;0.20;;;17.30;99.90;;;;;;6012777;23;20474;-86
2022/09/13 03:31:46;;;;;;;0.30;0.20;;;17.30;99.90;;;;;;6012898;23;20027;-85
2022/09/13 03:34:25;;;;;;;0.30;0.20;;;17.30;99.90;;;;;;6036596;23;20098;-85
2022/09/13 03:37:01;;;;;;;0.10;0.10;;;17.30;99.90;;;;;;6158262;23;20077;-87
2022/09/13 03:39:48;;;;;;;0.43;0.20;;;17.30;99.90;;;;;;6158370;23;20111;-85
2022/09/13 03:42:41;;;;;;;0.10;0.10;;;17.30;99.90;;;;;;6157694;23;20168;-84
2022/09/13 03:45:08;;;;;;;0.45;0.28;;;17.30;99.90;;;;;;6040628;23;20078;-85
2022/09/13 03:47:37;;;;;;;0.20;0.20;;;17.30;99.90;;;;;;6064884;23;20543;-84
2022/09/13 03:50:07;;;;;;;0.68;0.10;;;17.30;99.90;;;;;;6065324;23;20030;-87
2022/09/13 03:52:34;;;;;;;0.13;0.10;;;17.30;99.90;;;;;;6063974;23;20029;-86
2022/09/13 03:55:00;;;;;;;0.20;0.20;;;17.30;99.90;;;;;;6123342;23;20458;-87
2022/09/13 03:57:26;;;;;;;0.10;0.10;;;17.30;99.90;;;;;;6123223;23;20053;-84
2022/09/13 03:59:53;;;;;;;1.05;0.25;;;17.30;99.90;;;;;;6123128;23;20025;-86
2022/09/13 04:02:22;;;;;;;0.30;0.10;;;17.30;99.90;;;;;;6122762;23;20014;-87
2022/09/13 04:04:48;;;;;;;0.57;0.10;;;17.30;99.90;;;;;;6098407;23;20353;-85
2022/09/13 04:07:19;;;;;;;0.40;0.10;;;17.30;99.90;;;;;;6098640;23;20018;-86
2022/09/13 04:09:44;;;;;;;0.20;0.20;;;17.30;99.90;;;;;;6098637;23;20018;-86
2022/09/13 04:12:12;;;;;;;0.20;0.10;;;17.20;99.90;;;;;;6122938;23;20524;-86
2022/09/13 04:14:39;;;;;;;0.10;0.10;;;17.30;99.90;;;;;;6098453;23;20014;-85
2022/09/13 04:17:05;;;;;;;1.65;0.20;;;17.20;99.90;;;;;;6122954;23;20057;-87
2022/09/13 04:19:31;;;;;;;0.60;0.47;;;17.20;99.90;;;;;;6098788;23;20028;-86
2022/09/13 04:21:56;;;;;;;0.20;0.10;;;17.20;99.90;;;;;;6178059;23;20065;-83
2022/09/13 04:24:27;;;;;;;0.30;0.10;;;17.20;99.90;;;;;;6245227;23;20020;-86
2022/09/13 04:26:54;;;;;;;0.20;0.10;;;17.20;99.90;;;;;;6246038;22;20012;-88
2022/09/13 04:29:21;;;;;;;0.28;0.10;;;17.20;99.90;;;;;;6247256;22;20016;-86
2022/09/13 04:31:48;;;;;;;0.10;0.10;;;17.20;99.90;;;;;;6247574;22;20051;-87
2022/09/13 04:34:15;;;;;;;0.32;0.10;;;17.20;99.90;;;;;;6245525;23;20008;-83
2022/09/13 04:36:41;;;;;;;0.10;0.10;;;17.20;99.90;;;;;;6247380;22;20026;-85
2022/09/13 04:39:07;;;;;;;0.10;0.10;;;17.20;99.90;;;;;;6247734;22;20443;-86
2022/09/13 04:41:33;;;;;;;0.30;0.10;;;17.10;99.90;;;;;;6247321;23;20016;-84
2022/09/13 04:44:02;;;;;;;0.30;0.10;;;17.30;99.90;;;;;;6246968;22;20028;-85
2022/09/13 04:46:28;;;;;;;0.90;0.10;;;17.10;99.90;;;;;;6246558;22;20016;-85
2022/09/13 04:48:54;;;;;;;0.20;0.08;;;17.10;99.90;;;;;;6247368;23;20051;-86
2022/09/13 04:51:20;;;;;;;0.93;0.13;;;17.10;99.90;;;;;;6220285;23;20043;-85
2022/09/13 04:53:54;;;;;;;0.20;0.10;;;17.40;99.90;;;;;;6246947;23;20024;-85
2022/09/13 04:56:22;;;;;;;1.35;0.20;;;17.10;99.90;;;;;;6246925;23;20020;-84
2022/09/13 04:58:51;;;;;;;1.20;0.20;;;17.30;99.90;;;;;;6220009;23;20473;-85
2022/09/13 05:01:17;;;;;;;0.35;0.20;;;17.10;99.90;;;;;;6219928;23;20016;-85
2022/09/13 05:03:43;;;;;;;0.20;0.20;;;17.10;99.90;;;;;;6247342;23;20023;-84
2022/09/13 05:06:11;;;;;;;0.38;0.10;;;17.10;99.90;;;;;;6219924;23;20020;-84
2022/09/13 05:08:37;;;;;;;1.75;0.30;;;17.10;99.90;;;;;;6247341;23;20016;-84
2022/09/13 05:11:03;;;;;;;0.40;0.20;;;17.10;99.90;;;;;;6246542;23;20050;-83
2022/09/13 05:13:29;;;;;;;0.60;0.50;;;17.10;99.90;;;;;;6246861;23;20016;-85
2022/09/13 05:16:01;;;;;;;0.77;0.40;;;17.20;99.90;;;;;;6219774;23;20061;-85
2022/09/13 05:18:28;;;;;;;3.72;0.63;;;17.20;99.90;;;;;;6246162;23;20023;-87
2022/09/13 05:20:55;;;;;;;1.67;0.30;;;17.30;99.90;;;;;;6246785;23;20320;-85
2022/09/13 05:23:22;;;;;;;0.63;0.20;;;17.20;99.90;;;;;;6246475;23;20012;-87
2022/09/13 05:25:58;;;;;;;1.13;0.30;;;17.10;99.90;;;;;;6246977;23;20339;-87
2022/09/13 05:28:26;;;;;;;2.45;0.40;;;17.10;99.90;;;;;;6219466;23;20095;-86
2022/09/13 05:31:13;;;;;;;0.82;0.20;;;17.10;99.90;;;;;;6220367;23;20024;-91
2022/09/13 05:33:38;;;;;;;1.20;0.30;;;17.10;99.90;;;;;;6222517;23;20020;-88
2022/09/13 05:36:07;;;;;;;1.40;0.20;;;17.10;99.90;;;;;;6221546;23;20023;-91
2022/09/13 05:38:36;;;;;;;2.53;0.20;;;17.10;99.90;;;;;;6220879;23;20335;-89
2022/09/13 05:41:03;;;;;;;1.55;0.30;;;17.00;99.90;;;;;;6250451;23;20504;-89
2022/09/13 05:43:31;;;;;;;1.38;0.20;;;17.10;99.90;;;;;;6220018;23;20020;-85
2022/09/13 05:46:12;;;;;;;1.73;0.50;;;17.10;99.90;;;;;;6246311;23;20083;-89
2022/09/13 05:48:39;;;;;;;0.80;0.30;;;17.10;99.90;;;;;;6220957;23;20020;-89
2022/09/13 05:51:10;;;;;;;2.55;0.22;;;17.10;99.90;;;;;;6247612;23;20097;-88
2022/09/13 05:53:40;;;;;;;0.40;0.20;;;17.10;99.90;;;;;;6220712;23;20086;-91
2022/09/13 05:56:08;;;;;;;1.92;0.30;;;17.10;99.90;;;;;;6247577;23;20071;-91
2022/09/13 05:58:37;;;;;;;1.80;0.47;;;17.10;99.90;;;;;;6219582;23;20020;-92
2022/09/13 06:01:03;;;;;;;1.08;0.20;;;17.10;99.90;;;;;;6220124;23;20542;-91
2022/09/13 06:03:29;;;;;;;1.90;0.20;;;17.20;99.90;;;;;;6247410;23;20044;-88
2022/09/13 06:05:56;;;;;;;1.13;0.20;;;17.20;99.90;;;;;;6219960;23;20442;-88
2022/09/13 06:08:23;;;;;;;0.68;0.13;;;17.20;99.90;;;;;;6247176;23;20023;-88
2022/09/13 06:10:57;;;;;;;0.80;0.20;;;17.20;99.90;;;;;;6219753;23;20447;-92
2022/09/13 06:13:23;;;;;;;0.43;0.10;;;17.30;99.90;;;;;;6247342;23;20018;-92
2022/09/13 06:15:50;;;;;;;0.60;0.30;;;17.20;99.90;;;;;;6223663;23;20016;-93
2022/09/13 06:18:16;;;;;;;0.80;0.20;;;17.30;99.90;;;;;;6248117;23;20342;-91
2022/09/13 06:20:42;;;;;;;10.15;0.38;;;17.30;99.90;;;;;;6246272;23;20027;-89
2022/09/13 06:23:08;;;;;;;0.50;0.20;;;17.30;99.90;;;;;;6195467;23;20504;-90
2022/09/13 06:25:34;;;;;;;0.60;0.20;;;17.40;99.90;;;;;;6219931;23;20017;-89
2022/09/13 06:27:59;;;;;;;1.20;0.30;;;17.40;99.90;;;;;;6221359;23;20024;-91
2022/09/13 06:30:25;;;;;;;0.95;0.17;;;17.40;99.90;;;;;;6247135;23;20004;-94
2022/09/13 06:32:51;;;;;;;1.73;0.20;;;17.40;99.90;;;;;;6220264;23;20023;-91
2022/09/13 06:35:16;;;;;;;0.50;0.30;;;17.40;99.90;;;;;;6247223;23;20554;-94
2022/09/13 06:37:42;;;;;;;0.30;0.15;;;17.50;99.90;;;;;;6223403;23;20024;-90
2022/09/13 06:40:09;;;;;;;0.70;0.20;;;17.30;99.90;;;;;;6251942;23;20016;-88
2022/09/13 06:42:35;;;;;;;2.55;0.22;;;17.50;99.90;;;;;;6250969;23;20016;-88
2022/09/13 06:45:02;;;;;;;2.60;0.20;;;17.60;99.90;;;;;;6247030;23;20509;-89
2022/09/13 06:47:51;;;;;;;3.13;0.35;;;17.60;99.90;;;;;;6221440;23;20020;-91
2022/09/13 06:50:17;;;;;;;0.90;0.20;;;17.50;99.90;;;;;;6221509;23;20023;-92
2022/09/13 06:52:57;;;;;;;2.13;0.20;;;17.70;99.90;;;;;;6219553;23;20032;-93
2022/09/13 06:55:26;;;;;;;1.23;0.30;;;17.70;99.90;;;;;;6219997;23;20028;-92
2022/09/13 06:58:00;;;;;;;2.30;0.40;;;17.60;99.90;;;;;;6219986;23;20393;-92
2022/09/13 07:04:30;;;;;;;2.30;0.30;;;17.60;99.90;;;;;;6246367;23;20066;-91
2022/09/13 07:06:57;;;;;;;1.05;0.15;;;17.60;99.90;;;;;;6245089;23;20053;-89
2022/09/13 07:09:26;;;;;;;1.65;0.20;;;17.60;99.90;;;;;;6219274;23;20109;-88
2022/09/13 07:17:38;;;;;;;1.90;0.22;;;17.60;99.90;;;;;;6246023;23;20027;-86
2022/09/13 07:20:06;;;;;;;3.00;0.30;;;17.70;99.90;;;;;;6218843;23;20355;-90
2022/09/13 07:22:31;;;;;;;1.65;0.63;;;17.70;99.90;;;;;;6246354;23;20096;-90
2022/09/13 07:24:57;;;;;;;1.65;0.30;;;17.90;99.90;;;;;;6194578;23;20062;-88
2022/09/13 07:27:23;;;;;;;1.77;0.20;;;18.00;99.90;;;;;;6219639;23;20089;-86
2022/09/13 07:29:51;;;;;;;1.58;0.30;;;18.00;99.90;;;;;;6246413;23;20091;-86
2022/09/13 07:32:16;;;;;;;0.68;0.20;;;18.20;99.90;;;;;;6218945;23;20024;-87
2022/09/13 07:34:42;;;;;;;4.00;0.20;;;18.30;99.90;;;;;;6246215;23;20530;-86
2022/09/13 07:37:08;;;;;;;1.23;0.28;;;18.40;99.90;;;;;;6246670;23;20023;-85
2022/09/13 07:39:33;;;;;;;3.58;0.22;;;18.40;99.90;;;;;;6219620;23;20054;-87
2022/09/13 07:41:59;;;;;;;3.78;0.43;;;18.60;99.90;;;;;;6218808;23;20020;-85
2022/09/13 07:44:25;;;;;;;2.55;0.50;;;18.70;99.90;;;;;;6218569;23;20100;-85
2022/09/13 07:46:51;;;;;;;2.85;0.47;;;18.80;99.90;;;;;;6218663;23;20020;-84
2022/09/13 07:49:17;;;;;;;3.67;0.63;;;18.80;99.90;;;;;;6218820;23;20020;-84
2022/09/13 07:51:52;;;;;;;3.80;0.20;;;18.80;99.90;;;;;;6218454;23;20427;-86
2022/09/13 07:54:19;;;;;;;4.43;0.30;;;18.80;99.90;;;;;;6218706;23;20020;-87
2022/09/13 07:56:50;;;;;;;2.70;0.30;;;18.90;99.90;;;;;;6218774;23;20091;-89
2022/09/13 07:59:21;;;;;;;3.05;0.30;;;18.90;99.90;;;;;;6214646;23;20082;-89
2022/09/13 08:04:47;;;;;;;1.00;0.20;;;18.90;99.90;;;;;;6029588;23;20185;-87
2022/09/13 08:07:33;;;;;;;1.75;0.50;;;19.00;99.90;;;;;;6070044;23;20014;-88
2022/09/13 08:10:21;;;;;;;;;;;;;;;;;;;;;
2022/09/13 08:13:33;;;;;;;3.95;0.20;;;19.30;99.90;;;;;;6067959;23;20022;-87
2022/09/13 08:16:03;;;;;;;2.80;0.22;;;19.30;99.90;;;;;;6075429;23;20032;-87
2022/09/13 08:19:15;;;;;;;;;;;;;;;;;;;;;
2022/09/13 08:21:44;;;;;;;1.27;0.28;;;19.50;99.90;;;;;;6098415;23;20022;-88
2022/09/13 08:25:22;;;;;;;2.00;0.50;;;19.60;99.90;;;;;;6122067;23;20379;-86
2022/09/13 08:35:01;;;;;;;0.82;0.20;;;20.10;99.90;;;;;;5989354;22;20152;-86
2022/09/13 08:37:33;;;;;;;2.10;0.40;;;19.90;99.90;;;;;;6188451;23;20075;-86
2022/09/13 08:39:58;;;;;;;3.45;0.20;;;20.00;99.90;;;;;;6188475;23;20020;-85
2022/09/13 08:42:44;;;;;;;2.22;0.20;;;20.10;99.90;;;;;;6189020;23;20036;-88
2022/09/13 08:45:10;;;;;;;0.43;0.20;;;20.30;99.90;;;;;;6214963;23;20096;-86
2022/09/13 08:47:42;;;;;;;5.50;0.30;;;20.50;99.90;;;;;;6214193;23;20029;-85
2022/09/13 08:50:26;;;;;;;3.28;0.32;;;20.70;99.90;;;;;;6188286;23;20020;-85
2022/09/13 08:53:02;;;;;;;4.88;0.30;;;20.70;99.90;;;;;;6214626;23;20016;-85
2022/09/13 08:55:48;;;;;;;1.95;0.30;;;20.70;99.90;;;;;;6188482;23;20467;-86
2022/09/13 08:58:48;;;;;;;1.30;0.20;;;20.60;99.90;;;;;;6188264;23;20444;-85
2022/09/13 09:01:17;;;;;;;2.83;0.30;;;20.80;99.90;;;;;;6214746;23;20020;-86
2022/09/13 09:04:01;;;;;;;2.13;0.10;;;20.70;99.90;;;;;;6215192;23;20023;-85
2022/09/13 09:06:27;;;;;;;0.65;0.10;;;20.70;99.90;;;;;;6187834;23;20456;-85
2022/09/13 09:09:11;;;;;;;1.48;0.20;;;20.80;99.90;;;;;;6188338;23;20020;-86
2022/09/13 09:11:50;;;;;;;3.45;0.30;;;20.90;99.90;;;;;;6216537;23;20028;-86
2022/09/13 09:22:07;;;;;;;3.78;0.20;;;21.40;99.90;;;;;;6216656;23;20019;-86
2022/09/13 09:24:37;;;;;;;1.17;0.20;;;21.40;99.90;;;;;;6189846;23;20368;-85
2022/09/13 09:27:18;;;;;;;1.75;0.10;;;21.40;99.90;;;;;;6189705;23;20099;-85
2022/09/13 09:29:50;;;;;;;0.63;0.15;;;21.60;99.90;;;;;;6216492;23;20024;-85
2022/09/13 09:32:54;;;;;;;2.92;0.30;;;21.70;99.90;;;;;;6190224;23;20016;-85
2022/09/13 09:36:01;;;;;;;0.52;0.10;;;21.90;99.90;;;;;;6190663;23;20024;-86
2022/09/13 09:38:44;;;;;;;4.93;0.93;;;22.00;99.90;;;;;;6215139;23;20222;-86
2022/09/13 09:41:31;;;;;;;3.33;0.40;;;22.10;99.90;;;;;;6188897;23;20055;-85
2022/09/13 09:44:21;;;;;;;5.28;0.25;;;22.10;99.90;;;;;;6215258;23;20088;-85
2022/09/13 09:47:13;;;;;;;2.13;0.30;;;22.30;99.90;;;;;;6216227;23;20027;-85
2022/09/13 09:53:25;;;;;;;1.42;0.30;;;22.10;99.90;;;;;;6123558;23;20033;-90
2022/09/13 10:00:35;;;;;;;3.55;0.30;;;22.10;99.90;;;;;;4549423;27;15942854;-86
2022/09/13 10:03:36;;;;;;;1.63;0.20;;;21.70;99.90;;;;;;5111408;22;20052;-86
2022/09/13 10:06:35;;;;;;;1.23;0.75;;;21.40;99.90;;;;;;5068331;28;20611;-86
2022/09/13 10:09:29;;;;;;;5.82;0.30;;;21.40;99.90;;;;;;5014863;28;20473;-87
2022/09/13 10:12:50;;;;;;;1.55;0.20;;;21.70;99.90;;;;;;5052918;22;20189;-87
2022/09/13 10:18:51;;;;;;;3.50;0.22;;;21.60;99.90;;;;;;5108486;22;20533;-87
2022/09/13 10:28:02;;;;;;;3.90;0.20;;;21.90;99.90;;;;;;4870861;26;20056;-89
2022/09/13 10:30:56;;;;;;;0.95;0.20;;;22.10;99.90;;;;;;5089350;28;20119;-87
2022/09/13 10:37:35;;;;;;;1.33;0.20;;;22.00;97.80;;;;;;4988904;28;20082;-86
2022/09/13 10:40:28;;;;;;;2.53;0.30;;;21.90;99.80;;;;;;5071372;28;20060;-87
2022/09/13 10:43:06;;;;;;;1.17;0.10;;;22.00;97.20;;;;;;5071277;28;20044;-87
2022/09/13 10:46:10;;;;;;;0.93;0.08;;;22.10;97.00;;;;;;5412403;22;20047;-87
2022/09/13 10:49:24;;;;;;;2.85;0.20;;;22.00;97.60;;;;;;5011086;28;20068;-88
2022/09/13 10:52:00;;;;;;;1.80;0.20;;;22.20;97.30;;;;;;4933032;29;20070;-86
2022/09/13 10:54:47;;;;;;;0.60;0.10;;;22.30;96.70;;;;;;4948854;28;20036;-86
2022/09/13 11:08:48;;;;;;;1.55;0.20;;;22.70;96.80;;;;;;1250933;22;20302;-87
2022/09/13 11:11:36;;;;;;;4.30;0.50;;;22.60;97.10;;;;;;5020266;28;20072;-85
2022/09/13 11:14:22;;;;;;;4.45;1.38;;;22.30;97.10;;;;;;5054222;28;20064;-83
2022/09/13 11:17:17;;;;;;;;;;;;;;;;;;;;;
2022/09/13 11:19:52;;;;;;;1.88;0.20;;;22.30;97.00;;;;;;5045973;28;20053;-83
2022/09/13 11:22:33;;;;;;;0.70;0.20;;;22.20;97.40;;;;;;5006395;28;20045;-87
2022/09/13 11:25:03;;;;;;;2.58;0.25;;;22.20;98.20;;;;;;5035524;28;20092;-86
2022/09/13 11:27:44;;;;;;;1.08;0.10;;;22.40;97.30;;;;;;5002250;28;20051;-87
2022/09/13 11:30:17;;;;;;;1.55;0.20;;;22.60;97.10;;;;;;5016926;28;20043;-85
2022/09/13 11:33:14;;;;;;;4.20;0.28;;;22.70;98.20;;;;;;5047411;28;20497;-85
2022/09/13 11:35:58;;;;;;;3.63;0.40;;;22.90;96.40;;;;;;5049072;28;20040;-85
2022/09/13 11:38:35;;;;;;;1.48;0.30;;;22.90;96.10;;;;;;5053834;28;20048;-85
2022/09/13 11:41:07;;;;;;;1.33;0.20;;;22.90;96.20;;;;;;5020393;28;20079;-86
2022/09/13 11:43:59;;;;;;;1.98;0.50;;;23.00;96.40;;;;;;5036937;28;20033;-84
2022/09/13 11:46:46;;;;;;;2.28;0.25;;;23.30;96.80;;;;;;5054969;28;20036;-84
2022/09/13 11:49:19;;;;;;;5.72;0.22;;;23.30;97.20;;;;;;5024961;28;20084;-86
2022/09/13 11:51:55;;;;;;;4.90;0.20;;;23.50;95.30;;;;;;5016073;28;20034;-86
2022/09/13 11:54:46;;;;;;;0.55;0.10;;;23.40;95.80;;;;;;5034800;28;20129;-85
2022/09/13 11:57:20;;;;;;;3.95;0.30;;;23.30;96.70;;;;;;4997006;28;20046;-85
2022/09/13 11:59:52;;;;;;;8.52;0.50;;;23.40;95.60;;;;;;5000843;28;20045;-85
2022/09/13 12:02:46;;;;;;;3.10;0.30;;;23.30;95.30;;;;;;5001091;28;20506;-84
2022/09/13 12:05:20;;;;;;;2.17;0.30;;;23.00;96.10;;;;;;5043600;28;20045;-84
2022/09/13 12:08:02;;;;;;;1.80;0.20;;;23.10;95.90;;;;;;5036167;28;20406;-84
2022/09/13 12:10:31;;;;;;;1.60;0.20;;;23.10;96.20;;;;;;5036810;28;20057;-86
2022/09/13 12:13:00;;;;;;;5.45;0.20;;;23.30;95.40;;;;;;5035825;28;20151;-83
2022/09/13 12:15:26;;;;;;;6.22;0.40;;;23.10;95.30;;;;;;5053865;28;20508;-86
2022/09/13 12:18:15;;;;;;;2.70;0.20;;;23.00;95.60;;;;;;5054323;28;20041;-84
2022/09/13 12:20:50;;;;;;;7.07;0.47;;;23.10;96.50;;;;;;5053256;28;20045;-85
2022/09/13 12:23:31;;;;;;;1.75;0.20;;;23.20;96.10;;;;;;5053668;28;20478;-86
2022/09/13 12:26:20;;;;;;;2.75;0.30;;;23.00;96.50;;;;;;5036260;28;20105;-85
2022/09/13 12:29:11;;;;;;;2.90;0.22;;;23.10;96.10;;;;;;5030901;28;20053;-86
2022/09/13 12:31:49;;;;;;;3.72;0.20;;;23.30;95.40;;;;;;4933547;29;20052;-86
2022/09/13 12:34:48;;;;;;;2.42;0.45;;;23.30;94.90;;;;;;4917124;29;20059;-87
2022/09/13 12:37:40;;;;;;;2.13;0.45;;;23.30;95.70;;;;;;4958240;23;20069;-86
2022/09/13 12:40:50;;;;;;;2.60;0.20;;;23.50;94.10;;;;;;5036390;28;20080;-87
2022/09/13 13:07:17;;;;;;;1.55;0.10;;;22.90;94.30;;;;;;5059151;23;20294;-89
2022/09/13 13:10:46;;;;;;;1.13;0.10;;;22.80;94.70;;;;;;5379140;23;20069;31
2022/09/13 13:13:38;;;;;;;2.13;0.30;;;22.80;94.90;;;;;;4752104;30;20138;-89
2022/09/13 13:35:40;;;;;;;4.88;0.73;;;22.50;95.90;;;;;;4771448;29;20093;-93
2022/09/13 14:04:05;;;;;;;4.70;0.37;;;22.40;94.70;;;;;;3953624;27;20043;-87
2022/09/13 14:17:14;;;;;;;;;;;;;;;;;;;;;
2022/09/13 14:45:59;;;;;;;1.52;0.20;;;22.20;94.80;;;;;;4047340;27;20694;-90
2022/09/13 14:49:30;;;;;;;1.40;0.30;;;22.50;92.60;;;;;;4764240;30;20079;-86
2022/09/13 14:52:19;;;;;;;1.45;0.20;;;22.10;92.60;;;;;;4721714;30;20510;-86
2022/09/13 14:55:38;;;;;;;;;;;;;;;;;;;;;
2022/09/13 15:01:19;;;;;;;1.52;0.20;;;21.80;94.20;;;;;;4714093;30;20071;-91
2022/09/13 15:03:47;;;;;;;6.43;0.22;;;21.80;94.10;;;;;;4729125;30;20053;-91
2022/09/13 15:06:39;;;;;;;2.95;0.22;;;21.80;94.20;;;;;;4728273;30;20527;-91
2022/09/13 15:09:11;;;;;;;2.40;0.10;;;21.90;93.80;;;;;;4780978;24;20464;-88
2022/09/13 15:39:53;;;;;;;;;;;;;;;;;;;;;
2022/09/13 15:43:05;;;;;;;2.17;0.20;;;21.00;95.00;;;;;;4823067;24;20070;-93
2022/09/13 15:49:35;;;;;;;1.45;0.10;;;20.90;94.80;;;;;;4790172;29;20417;-86
2022/09/13 15:52:04;;;;;;;0.80;0.10;;;20.80;95.40;;;;;;4703026;30;20396;-86
2022/09/13 15:54:47;;;;;;;0.93;0.20;;;20.80;94.70;;;;;;4717039;30;20179;-87
2022/09/13 16:03:26;;;;;;;3.63;0.30;;;20.70;95.30;;;;;;4803003;29;20142;-87
2022/09/13 16:06:24;;;;;;;1.08;0.17;;;20.70;95.60;;;;;;4795611;24;20145;-90
2022/09/13 16:09:16;;;;;;;2.80;0.40;;;20.80;95.90;;;;;;4801596;29;20453;-92
2022/09/13 16:12:38;;;;;;;1.25;0.22;;;20.40;96.20;;;;;;4792189;30;20132;-91
2022/09/13 16:21:23;;;;;;;;;;;20.30;97.50;;;;;;4634381;27;20465;-90
2022/09/13 16:23:55;;;;;;;2.92;0.20;;;20.00;97.80;;;;;;4828107;24;19938;-92
2022/09/13 16:26:29;;;;;;;1.90;0.25;;;19.90;98.90;;;;;;4790787;29;20058;-90
2022/09/13 16:29:20;;;;;;;2.00;0.20;;;19.90;98.40;;;;;;4770743;30;20055;-91
2022/09/13 16:31:49;;;;;;;2.92;0.10;;;19.70;98.10;;;;;;4773209;30;20062;-88
2022/09/13 16:34:34;;;;;;;0.70;0.10;;;19.80;98.20;;;;;;4790053;30;20116;-93
2022/09/13 16:37:26;;;;;;;2.53;0.20;;;19.60;98.10;;;;;;4791934;30;20058;-91
2022/09/13 16:40:18;;;;;;;3.22;0.30;;;19.70;97.30;;;;;;4780303;30;20052;-89
2022/09/13 16:42:44;;;;;;;2.78;0.20;;;19.80;97.30;;;;;;4774435;30;20167;-92
2022/09/13 16:45:11;;;;;;;0.63;0.00;;;19.70;97.60;;;;;;4776005;30;20107;-92
2022/09/13 16:47:40;;;;;;;3.35;0.20;;;19.70;97.30;;;;;;4781649;30;20051;-89
2022/09/13 16:50:10;;;;;;;0.40;0.25;;;19.60;97.70;;;;;;4800396;29;20039;-89
2022/09/13 16:52:39;;;;;;;0.55;0.10;;;19.50;97.40;;;;;;4792488;30;20062;-88
2022/09/13 16:55:05;;;;;;;4.70;0.30;;;19.50;97.20;;;;;;4773469;30;20447;-90
2022/09/13 16:57:32;;;;;;;1.90;0.32;;;19.40;97.40;;;;;;4767738;29;20070;-90
2022/09/13 17:00:03;;;;;;;2.58;0.17;;;19.30;97.40;;;;;;4797800;24;20073;-90
2022/09/13 17:02:56;;;;;;;1.08;0.10;;;19.30;97.80;;;;;;4778399;29;20050;-89
2022/09/13 17:05:24;;;;;;;2.47;0.10;;;19.10;98.20;;;;;;4804889;29;20055;-89
2022/09/13 17:14:03;;;;;;;1.10;0.20;;;18.90;98.90;;;;;;4814137;24;19960;-89
2022/09/13 17:16:55;;;;;;;0.47;0.10;;;18.90;98.80;;;;;;4968125;24;20104;-88
2022/09/13 17:19:33;;;;;;;3.08;0.10;;;18.80;99.40;;;;;;4772489;30;20120;-91
2022/09/13 17:22:13;;;;;;;0.30;0.10;;;18.80;99.80;;;;;;4791313;29;20103;-92
2022/09/13 17:24:57;;;;;;;1.35;0.10;;;18.70;99.00;;;;;;4948716;24;20055;-91